Saturday, July 21, 2018, 8:40 PM EDT
Back to Local

KIWI, Wiscasset Municipal Airport

Location: Wiscasset, ME, United States Lat: 43.967
Local Time: 8:40 PM EDT ( 0:40 GMT) Lon: -69.717
Time Zone: US/Eastern Elev: 68 ft

Show me the last for .
Show Coded

Time T Td Feel RH Dir Speed Gust Alt SLP Vis Weather Sky Remarks
2018-07-21 19:53 68 55 - 63 - Calm - 30.18 30.18 10 CLR 6-hr Min Temp (8pm): 68.0°F
6-hr Max Temp (8pm): 77.0°F
2018-07-21 18:53 71 52 76 50 180° 5 - 30.17 30.17 10 CLR None
2018-07-21 17:53 73 50 76 44 180° 6 - 30.16 30.16 10 CLR None
2018-07-21 16:53 75 51 77 43 180° 7 - 30.17 30.16 10 CLR None
2018-07-21 15:53 76 52 77 43 190° 7 - 30.16 30.16 10 CLR None
2018-07-21 14:53 76 52 77 43 Variable 5 - 30.17 30.17 10 CLR None
2018-07-21 13:53 76 53 77 45 190° 5 - 30.18 30.18 10 CLR 6-hr Min Temp (2pm): 61.0°F
6-hr Max Temp (2pm): 77.0°F
2018-07-21 12:53 76 55 78 48 180° 6 - 30.19 30.19 10 CLR None
2018-07-21 11:53 75 56 77 51 Variable 3 - 30.20 30.20 10 CLR None
2018-07-21 10:53 74 51 76 44 - - - 30.21 30.20 10 CLR None
2018-07-21 09:53 73 54 76 51 - Calm - 30.20 30.20 10 CLR None
2018-07-21 08:53 68 60 - 75 - Calm - 30.21 30.20 10 CLR None
2018-07-21 07:53 61 61 - 100 - Calm - 30.21 30.21 10 CLR 6-hr Min Temp (8am): 53.1°F
6-hr Max Temp (8am): 61.0°F
2018-07-21 07:42 59 59 - 100 - Calm - 30.21 - 9 SCT001 None
2018-07-21 07:35 58 58 - 100 - Calm - 30.21 - 10 BKN001 None
2018-07-21 07:15 57 57 - 100 - Calm - 30.21 - 2 BR OVC001 None
2018-07-21 07:12 57 57 - 100 - Calm - 30.22 - 1 BR OVC001 None
2018-07-21 07:04 56 56 - 100 - Calm - 30.22 - 1 BR OVC001 None
2018-07-21 06:53 56 56 - 100 - Calm - 30.21 30.21 5 BR BKN001 None
2018-07-21 06:31 55 55 - 100 - Calm - 30.21 - 3 BR BKN001 None
2018-07-21 06:26 54 54 - 100 - Calm - 30.21 - 1 BR OVC001 None
2018-07-21 05:53 53 53 - 100 - Calm - 30.20 30.20 0 FG VV001 None
2018-07-21 04:53 53 53 - 100 - Calm - 30.19 30.19 0 BR VV001 None
2018-07-21 04:13 54 54 - 100 - Calm - 30.20 - 0 FG VV002 None
2018-07-21 03:53 55 55 - 100 - Calm - 30.20 30.20 0 FG VV001 None
2018-07-21 03:35 56 56 - 100 - Calm - 30.19 - 0 FG VV001 None
2018-07-21 03:12 56 56 - 100 - Calm - 30.19 - 0 FG VV002 None
2018-07-21 02:53 56 56 - 100 - Calm - 30.19 30.19 0 FG VV001 None
2018-07-21 02:36 55 55 - 100 - Calm - 30.20 - 0 FG VV001 None
2018-07-21 02:16 55 55 - 100 - Calm - 30.20 - 1 BR OVC001 None
2018-07-21 02:01 55 55 - 100 - Calm - 30.20 - 0 BR OVC001 None
2018-07-21 01:58 55 55 - 100 - Calm - 30.20 - 1 BR OVC001 None
2018-07-21 01:53 55 55 - 100 - Calm - 30.20 30.20 9 OVC001 6-hr Min Temp (2am): 55.0°F
6-hr Max Temp (2am): 70.0°F
2018-07-21 01:29 56 56 - 100 - Calm - 30.20 - 5 BR OVC001 None
2018-07-21 01:10 56 56 - 100 - Calm - 30.19 - 2 BR OVC001 None
2018-07-21 01:02 57 57 - 100 - Calm - 30.19 - 1 BR OVC001 None
2018-07-21 00:55 57 57 - 100 - Calm - 30.19 - 2 BR OVC001 None
2018-07-21 00:53 57 57 - 100 - Calm - 30.19 30.19 1 BR VV001 24-hr Min Temp (1am): 51.1°F
24-hr Max Temp (1am): 80.1°F
2018-07-21 00:18 58 58 - 100 - Calm - 30.20 - 0 BR OVC001 Variable visibility
2018-07-21 00:16 58 58 - 100 - Calm - 30.20 - 1 BR OVC001 Variable visibility
2018-07-20 23:53 58 58 - 100 - Calm - 30.20 30.19 4 BR OVC001 None
2018-07-20 23:37 58 57 - 96 - Calm - 30.20 - 9 BKN001 None
2018-07-20 23:29 58 58 - 100 - Calm - 30.20 - 10 SCT001 None
2018-07-20 22:53 60 59 - 96 - Calm - 30.20 30.20 10 BKN001 None
2018-07-20 22:44 59 59 - 100 - Calm - 30.20 - 10 BKN001 None
2018-07-20 22:40 59 59 - 100 - Calm - 30.20 - 10 SCT002 None
2018-07-20 21:53 61 59 - 93 - Calm - 30.20 30.20 10 CLR None
2018-07-20 20:53 66 61 - 83 - Calm - 30.20 30.20 10 CLR None

Support USWX by starting your Amazon purchase here.